Terminal Aerodrome Forecast
Issued by NWS

Home | Current Version | Previous Version | Text Only | Print | Product List | Glossary On
Versions: 1 2 3 4 5 6 7 8 9 10 11 12 13 14 15 16 17 18 19 20 21 22 23
000
FTUS43 KIND 202300
TAFLAF
TAF
KLAF 202324Z 2100/2124 25005KT P6SM SCT100 BKN200
     FM210200 23003KT P6SM BKN100
     FM210600 21002KT 4SM -SHRA BR VCTS BKN050CB
     FM211500 24008KT P6SM SCT060 BKN200
      AMD LTD TO CLD VIS AND WIND 2101/2113=

USA.gov is the U.S. government's official web portal to all federal, state and local government web resources and services.